sensor_id;sensor_type;location;lat;lon;timestamp;P1;durP1;ratioP1;P2;durP2;ratioP2
57828;SDS011;43657;52.698;6.314;2022-08-01T00:01:38;18.88;;;7.78;;
57828;SDS011;43657;52.698;6.314;2022-08-01T00:04:03;16.50;;;7.45;;
57828;SDS011;43657;52.698;6.314;2022-08-01T00:06:29;16.08;;;7.70;;
57828;SDS011;43657;52.698;6.314;2022-08-01T00:08:55;16.23;;;8.07;;
57828;SDS011;43657;52.698;6.314;2022-08-01T00:11:21;17.88;;;8.32;;
57828;SDS011;43657;52.698;6.314;2022-08-01T00:13:46;16.98;;;8.15;;
57828;SDS011;43657;52.698;6.314;2022-08-01T00:16:12;15.52;;;7.15;;
57828;SDS011;43657;52.698;6.314;2022-08-01T00:18:38;16.83;;;7.68;;
57828;SDS011;43657;52.698;6.314;2022-08-01T00:21:04;17.40;;;6.78;;
57828;SDS011;43657;52.698;6.314;2022-08-01T00:23:29;11.48;;;7.55;;
57828;SDS011;43657;52.698;6.314;2022-08-01T00:25:56;13.32;;;7.10;;
57828;SDS011;43657;52.698;6.314;2022-08-01T00:28:21;15.07;;;7.47;;
57828;SDS011;43657;52.698;6.314;2022-08-01T00:30:47;9.25;;;6.45;;
57828;SDS011;43657;52.698;6.314;2022-08-01T00:33:13;15.95;;;6.95;;
57828;SDS011;43657;52.698;6.314;2022-08-01T00:35:38;8.80;;;5.95;;
57828;SDS011;43657;52.698;6.314;2022-08-01T00:38:04;12.45;;;5.97;;
57828;SDS011;43657;52.698;6.314;2022-08-01T00:40:30;9.63;;;5.93;;
57828;SDS011;43657;52.698;6.314;2022-08-01T00:42:55;8.23;;;5.63;;
57828;SDS011;43657;52.698;6.314;2022-08-01T00:45:21;10.60;;;5.88;;
57828;SDS011;43657;52.698;6.314;2022-08-01T00:47:46;11.73;;;5.88;;
57828;SDS011;43657;52.698;6.314;2022-08-01T00:50:12;11.82;;;6.28;;
57828;SDS011;43657;52.698;6.314;2022-08-01T00:52:38;12.85;;;6.35;;
57828;SDS011;43657;52.698;6.314;2022-08-01T00:55:05;9.95;;;6.03;;
57828;SDS011;43657;52.698;6.314;2022-08-01T00:57:31;12.23;;;6.60;;
57828;SDS011;43657;52.698;6.314;2022-08-01T00:59:57;12.75;;;6.43;;
57828;SDS011;43657;52.698;6.314;2022-08-01T01:02:23;12.95;;;5.65;;
57828;SDS011;43657;52.698;6.314;2022-08-01T01:04:48;9.20;;;5.93;;
57828;SDS011;43657;52.698;6.314;2022-08-01T01:12:54;9.40;;;5.85;;
57828;SDS011;43657;52.698;6.314;2022-08-01T01:18:07;10.98;;;6.07;;
57828;SDS011;43657;52.698;6.314;2022-08-01T01:20:38;9.95;;;5.65;;
57828;SDS011;43657;52.698;6.314;2022-08-01T01:25:49;7.80;;;4.93;;
57828;SDS011;43657;52.698;6.314;2022-08-01T01:31:31;9.63;;;5.80;;
57828;SDS011;43657;52.698;6.314;2022-08-01T01:34:03;13.85;;;5.80;;
57828;SDS011;43657;52.698;6.314;2022-08-01T01:36:30;9.55;;;6.05;;
57828;SDS011;43657;52.698;6.314;2022-08-01T01:38:57;10.60;;;5.88;;
57828;SDS011;43657;52.698;6.314;2022-08-01T01:41:25;9.45;;;6.38;;
57828;SDS011;43657;52.698;6.314;2022-08-01T01:43:52;7.95;;;6.07;;
57828;SDS011;43657;52.698;6.314;2022-08-01T01:46:19;16.40;;;6.55;;
57828;SDS011;43657;52.698;6.314;2022-08-01T01:48:48;9.27;;;6.05;;
57828;SDS011;43657;52.698;6.314;2022-08-01T01:51:15;17.08;;;7.60;;
57828;SDS011;43657;52.698;6.314;2022-08-01T01:53:41;19.35;;;8.18;;
57828;SDS011;43657;52.698;6.314;2022-08-01T01:56:09;14.98;;;7.38;;
57828;SDS011;43657;52.698;6.314;2022-08-01T01:58:36;15.45;;;7.78;;
57828;SDS011;43657;52.698;6.314;2022-08-01T02:01:04;23.65;;;8.10;;
57828;SDS011;43657;52.698;6.314;2022-08-01T02:03:31;16.08;;;7.03;;
57828;SDS011;43657;52.698;6.314;2022-08-01T02:06:01;15.57;;;7.32;;
57828;SDS011;43657;52.698;6.314;2022-08-01T02:08:28;12.98;;;7.88;;
57828;SDS011;43657;52.698;6.314;2022-08-01T02:10:56;13.43;;;8.38;;
57828;SDS011;43657;52.698;6.314;2022-08-01T02:13:41;13.02;;;7.50;;
57828;SDS011;43657;52.698;6.314;2022-08-01T02:16:08;24.85;;;7.70;;
57828;SDS011;43657;52.698;6.314;2022-08-01T02:18:36;20.75;;;8.13;;
57828;SDS011;43657;52.698;6.314;2022-08-01T02:21:03;9.73;;;7.45;;
57828;SDS011;43657;52.698;6.314;2022-08-01T02:23:33;9.70;;;7.10;;
57828;SDS011;43657;52.698;6.314;2022-08-01T02:26:01;8.57;;;6.15;;
57828;SDS011;43657;52.698;6.314;2022-08-01T02:28:30;6.90;;;5.90;;
57828;SDS011;43657;52.698;6.314;2022-08-01T02:31:00;10.90;;;5.07;;
57828;SDS011;43657;52.698;6.314;2022-08-01T02:33:40;5.13;;;4.43;;
57828;SDS011;43657;52.698;6.314;2022-08-01T02:36:08;5.80;;;4.43;;
57828;SDS011;43657;52.698;6.314;2022-08-01T02:38:39;7.00;;;4.90;;
57828;SDS011;43657;52.698;6.314;2022-08-01T02:41:08;5.78;;;4.50;;
57828;SDS011;43657;52.698;6.314;2022-08-01T02:43:38;7.90;;;4.32;;
57828;SDS011;43657;52.698;6.314;2022-08-01T02:46:08;5.32;;;3.88;;
57828;SDS011;43657;52.698;6.314;2022-08-01T02:48:41;7.13;;;4.32;;
57828;SDS011;43657;52.698;6.314;2022-08-01T02:51:08;5.50;;;4.55;;
57828;SDS011;43657;52.698;6.314;2022-08-01T02:53:37;6.65;;;4.75;;
57828;SDS011;43657;52.698;6.314;2022-08-01T02:56:06;6.78;;;4.78;;
57828;SDS011;43657;52.698;6.314;2022-08-01T02:58:33;6.72;;;4.03;;
57828;SDS011;43657;52.698;6.314;2022-08-01T03:01:01;7.28;;;4.70;;
57828;SDS011;43657;52.698;6.314;2022-08-01T03:03:29;13.32;;;5.60;;
57828;SDS011;43657;52.698;6.314;2022-08-01T03:05:56;7.07;;;4.32;;
57828;SDS011;43657;52.698;6.314;2022-08-01T03:08:22;7.53;;;5.03;;
57828;SDS011;43657;52.698;6.314;2022-08-01T03:10:49;11.02;;;5.35;;
57828;SDS011;43657;52.698;6.314;2022-08-01T03:13:18;12.10;;;5.90;;
57828;SDS011;43657;52.698;6.314;2022-08-01T03:15:46;8.38;;;5.30;;
57828;SDS011;43657;52.698;6.314;2022-08-01T03:18:14;16.42;;;6.10;;
57828;SDS011;43657;52.698;6.314;2022-08-01T03:20:41;8.45;;;5.85;;
57828;SDS011;43657;52.698;6.314;2022-08-01T03:23:08;7.03;;;5.50;;
57828;SDS011;43657;52.698;6.314;2022-08-01T03:25:37;8.23;;;5.80;;
57828;SDS011;43657;52.698;6.314;2022-08-01T03:28:06;7.25;;;5.47;;
57828;SDS011;43657;52.698;6.314;2022-08-01T03:30:33;9.07;;;5.00;;
57828;SDS011;43657;52.698;6.314;2022-08-01T03:33:01;9.60;;;4.88;;
57828;SDS011;43657;52.698;6.314;2022-08-01T03:35:28;13.05;;;4.97;;
57828;SDS011;43657;52.698;6.314;2022-08-01T03:37:58;5.38;;;4.25;;
57828;SDS011;43657;52.698;6.314;2022-08-01T03:40:35;5.38;;;3.60;;
57828;SDS011;43657;52.698;6.314;2022-08-01T03:43:10;5.55;;;3.53;;
57828;SDS011;43657;52.698;6.314;2022-08-01T03:45:46;4.90;;;3.17;;
57828;SDS011;43657;52.698;6.314;2022-08-01T03:48:19;6.65;;;3.90;;
57828;SDS011;43657;52.698;6.314;2022-08-01T03:50:51;7.88;;;4.00;;
57828;SDS011;43657;52.698;6.314;2022-08-01T03:53:22;5.13;;;3.65;;
57828;SDS011;43657;52.698;6.314;2022-08-01T03:55:53;4.88;;;3.17;;
57828;SDS011;43657;52.698;6.314;2022-08-01T03:58:20;7.70;;;3.65;;
57828;SDS011;43657;52.698;6.314;2022-08-01T04:00:47;6.55;;;3.20;;
57828;SDS011;43657;52.698;6.314;2022-08-01T04:03:14;5.88;;;3.20;;
57828;SDS011;43657;52.698;6.314;2022-08-01T04:05:43;5.47;;;3.20;;
57828;SDS011;43657;52.698;6.314;2022-08-01T04:08:09;3.53;;;2.83;;
57828;SDS011;43657;52.698;6.314;2022-08-01T04:10:34;4.53;;;3.00;;
57828;SDS011;43657;52.698;6.314;2022-08-01T04:13:01;6.78;;;3.55;;
57828;SDS011;43657;52.698;6.314;2022-08-01T04:15:27;5.88;;;3.30;;
57828;SDS011;43657;52.698;6.314;2022-08-01T04:17:53;4.60;;;3.13;;
57828;SDS011;43657;52.698;6.314;2022-08-01T04:20:19;4.63;;;3.10;;
57828;SDS011;43657;52.698;6.314;2022-08-01T04:22:45;7.72;;;2.90;;
57828;SDS011;43657;52.698;6.314;2022-08-01T04:25:11;7.22;;;3.25;;
57828;SDS011;43657;52.698;6.314;2022-08-01T04:27:42;4.63;;;3.20;;
57828;SDS011;43657;52.698;6.314;2022-08-01T04:30:11;4.93;;;3.42;;
57828;SDS011;43657;52.698;6.314;2022-08-01T04:32:38;4.25;;;2.97;;
57828;SDS011;43657;52.698;6.314;2022-08-01T04:35:07;4.38;;;3.17;;
57828;SDS011;43657;52.698;6.314;2022-08-01T04:37:37;4.85;;;3.05;;
57828;SDS011;43657;52.698;6.314;2022-08-01T04:40:05;3.97;;;2.95;;
57828;SDS011;43657;52.698;6.314;2022-08-01T04:42:32;5.15;;;3.10;;
57828;SDS011;43657;52.698;6.314;2022-08-01T04:44:58;6.72;;;3.17;;
57828;SDS011;43657;52.698;6.314;2022-08-01T04:47:24;4.43;;;3.13;;
57828;SDS011;43657;52.698;6.314;2022-08-01T04:49:51;5.80;;;3.33;;
57828;SDS011;43657;52.698;6.314;2022-08-01T04:52:17;5.20;;;3.70;;
57828;SDS011;43657;52.698;6.314;2022-08-01T04:54:43;4.38;;;3.25;;
57828;SDS011;43657;52.698;6.314;2022-08-01T04:57:09;7.63;;;3.90;;
57828;SDS011;43657;52.698;6.314;2022-08-01T04:59:37;6.60;;;3.70;;
57828;SDS011;43657;52.698;6.314;2022-08-01T05:04:38;8.85;;;3.58;;
57828;SDS011;43657;52.698;6.314;2022-08-01T05:07:05;7.90;;;4.20;;
57828;SDS011;43657;52.698;6.314;2022-08-01T05:09:31;5.50;;;3.78;;
57828;SDS011;43657;52.698;6.314;2022-08-01T05:11:58;8.93;;;3.63;;
57828;SDS011;43657;52.698;6.314;2022-08-01T05:14:25;7.15;;;4.00;;
57828;SDS011;43657;52.698;6.314;2022-08-01T05:16:51;8.35;;;4.05;;
57828;SDS011;43657;52.698;6.314;2022-08-01T05:19:17;9.73;;;4.40;;
57828;SDS011;43657;52.698;6.314;2022-08-01T05:21:42;7.47;;;4.00;;
57828;SDS011;43657;52.698;6.314;2022-08-01T05:24:08;9.00;;;4.00;;
57828;SDS011;43657;52.698;6.314;2022-08-01T05:26:33;6.85;;;3.85;;
57828;SDS011;43657;52.698;6.314;2022-08-01T05:28:59;10.13;;;4.88;;
57828;SDS011;43657;52.698;6.314;2022-08-01T05:31:25;9.13;;;4.15;;
57828;SDS011;43657;52.698;6.314;2022-08-01T05:33:51;8.30;;;4.15;;
57828;SDS011;43657;52.698;6.314;2022-08-01T05:36:17;9.27;;;4.10;;
57828;SDS011;43657;52.698;6.314;2022-08-01T05:38:42;9.82;;;3.90;;
57828;SDS011;43657;52.698;6.314;2022-08-01T05:41:08;9.68;;;4.20;;
57828;SDS011;43657;52.698;6.314;2022-08-01T05:43:34;10.57;;;4.05;;
57828;SDS011;43657;52.698;6.314;2022-08-01T05:46:00;8.18;;;4.07;;
57828;SDS011;43657;52.698;6.314;2022-08-01T05:48:26;8.82;;;4.10;;
57828;SDS011;43657;52.698;6.314;2022-08-01T05:50:52;7.68;;;3.75;;
57828;SDS011;43657;52.698;6.314;2022-08-01T05:53:18;7.15;;;4.30;;
57828;SDS011;43657;52.698;6.314;2022-08-01T05:55:44;14.77;;;3.83;;
57828;SDS011;43657;52.698;6.314;2022-08-01T05:58:09;10.25;;;3.85;;
57828;SDS011;43657;52.698;6.314;2022-08-01T06:00:35;9.43;;;3.97;;
57828;SDS011;43657;52.698;6.314;2022-08-01T06:03:00;10.70;;;4.72;;
57828;SDS011;43657;52.698;6.314;2022-08-01T06:05:26;10.63;;;4.50;;
57828;SDS011;43657;52.698;6.314;2022-08-01T06:07:52;9.23;;;3.83;;
57828;SDS011;43657;52.698;6.314;2022-08-01T06:10:17;9.55;;;3.60;;
57828;SDS011;43657;52.698;6.314;2022-08-01T06:12:43;10.38;;;3.33;;
57828;SDS011;43657;52.698;6.314;2022-08-01T06:15:09;10.73;;;3.40;;
57828;SDS011;43657;52.698;6.314;2022-08-01T06:17:34;9.30;;;3.45;;
57828;SDS011;43657;52.698;6.314;2022-08-01T06:20:00;10.75;;;3.78;;
57828;SDS011;43657;52.698;6.314;2022-08-01T06:22:26;8.25;;;3.40;;
57828;SDS011;43657;52.698;6.314;2022-08-01T06:24:51;11.32;;;3.80;;
57828;SDS011;43657;52.698;6.314;2022-08-01T06:27:17;9.95;;;3.63;;
57828;SDS011;43657;52.698;6.314;2022-08-01T06:29:43;12.30;;;4.13;;
57828;SDS011;43657;52.698;6.314;2022-08-01T06:32:09;10.98;;;3.63;;
57828;SDS011;43657;52.698;6.314;2022-08-01T06:34:35;10.57;;;3.30;;
57828;SDS011;43657;52.698;6.314;2022-08-01T06:37:01;8.10;;;3.50;;
57828;SDS011;43657;52.698;6.314;2022-08-01T06:39:26;8.45;;;3.67;;
57828;SDS011;43657;52.698;6.314;2022-08-01T06:41:52;7.38;;;3.58;;
57828;SDS011;43657;52.698;6.314;2022-08-01T06:44:18;10.27;;;3.22;;
57828;SDS011;43657;52.698;6.314;2022-08-01T06:46:43;8.93;;;3.03;;
57828;SDS011;43657;52.698;6.314;2022-08-01T06:49:09;11.00;;;2.70;;
57828;SDS011;43657;52.698;6.314;2022-08-01T06:51:35;10.07;;;3.80;;
57828;SDS011;43657;52.698;6.314;2022-08-01T06:54:00;9.23;;;2.95;;
57828;SDS011;43657;52.698;6.314;2022-08-01T06:56:26;8.77;;;2.90;;
57828;SDS011;43657;52.698;6.314;2022-08-01T06:58:51;7.43;;;2.80;;
57828;SDS011;43657;52.698;6.314;2022-08-01T07:01:17;11.77;;;3.63;;
57828;SDS011;43657;52.698;6.314;2022-08-01T07:03:43;13.52;;;2.75;;
57828;SDS011;43657;52.698;6.314;2022-08-01T07:06:08;8.40;;;2.67;;
57828;SDS011;43657;52.698;6.314;2022-08-01T07:08:34;11.00;;;3.20;;
57828;SDS011;43657;52.698;6.314;2022-08-01T07:11:00;9.20;;;3.10;;
57828;SDS011;43657;52.698;6.314;2022-08-01T07:13:26;10.82;;;3.20;;
57828;SDS011;43657;52.698;6.314;2022-08-01T07:15:53;13.50;;;3.75;;
57828;SDS011;43657;52.698;6.314;2022-08-01T07:18:18;10.38;;;2.53;;
57828;SDS011;43657;52.698;6.314;2022-08-01T07:20:44;11.98;;;2.90;;
57828;SDS011;43657;52.698;6.314;2022-08-01T07:23:11;9.18;;;2.65;;
57828;SDS011;43657;52.698;6.314;2022-08-01T07:25:38;13.40;;;2.92;;
57828;SDS011;43657;52.698;6.314;2022-08-01T07:28:03;8.55;;;2.33;;
57828;SDS011;43657;52.698;6.314;2022-08-01T07:30:29;10.85;;;3.03;;
57828;SDS011;43657;52.698;6.314;2022-08-01T07:32:55;12.65;;;2.70;;
57828;SDS011;43657;52.698;6.314;2022-08-01T07:35:21;8.60;;;2.53;;
57828;SDS011;43657;52.698;6.314;2022-08-01T07:37:47;6.82;;;2.30;;
57828;SDS011;43657;52.698;6.314;2022-08-01T07:40:13;9.65;;;2.70;;
57828;SDS011;43657;52.698;6.314;2022-08-01T07:42:39;9.68;;;2.40;;
57828;SDS011;43657;52.698;6.314;2022-08-01T07:45:08;6.70;;;2.15;;
57828;SDS011;43657;52.698;6.314;2022-08-01T07:47:34;9.75;;;2.47;;
57828;SDS011;43657;52.698;6.314;2022-08-01T07:50:01;6.88;;;2.55;;
57828;SDS011;43657;52.698;6.314;2022-08-01T07:52:27;7.70;;;2.40;;
57828;SDS011;43657;52.698;6.314;2022-08-01T07:54:53;7.43;;;2.15;;
57828;SDS011;43657;52.698;6.314;2022-08-01T07:57:19;8.48;;;2.47;;
57828;SDS011;43657;52.698;6.314;2022-08-01T07:59:44;10.23;;;2.58;;
57828;SDS011;43657;52.698;6.314;2022-08-01T08:02:10;10.27;;;2.30;;
57828;SDS011;43657;52.698;6.314;2022-08-01T08:04:35;11.15;;;2.30;;
57828;SDS011;43657;52.698;6.314;2022-08-01T08:07:01;7.30;;;2.03;;
57828;SDS011;43657;52.698;6.314;2022-08-01T08:09:27;6.07;;;1.70;;
57828;SDS011;43657;52.698;6.314;2022-08-01T08:11:53;7.53;;;2.20;;
57828;SDS011;43657;52.698;6.314;2022-08-01T08:14:19;9.95;;;2.60;;
57828;SDS011;43657;52.698;6.314;2022-08-01T08:16:47;7.07;;;2.13;;
57828;SDS011;43657;52.698;6.314;2022-08-01T08:19:13;8.68;;;2.55;;
57828;SDS011;43657;52.698;6.314;2022-08-01T08:21:39;9.25;;;1.98;;
57828;SDS011;43657;52.698;6.314;2022-08-01T08:24:05;9.88;;;2.15;;
57828;SDS011;43657;52.698;6.314;2022-08-01T08:26:48;6.43;;;2.20;;
57828;SDS011;43657;52.698;6.314;2022-08-01T08:29:19;7.43;;;1.58;;
57828;SDS011;43657;52.698;6.314;2022-08-01T08:31:45;8.20;;;1.90;;
57828;SDS011;43657;52.698;6.314;2022-08-01T08:34:11;5.90;;;1.60;;
57828;SDS011;43657;52.698;6.314;2022-08-01T08:36:37;6.22;;;1.42;;
57828;SDS011;43657;52.698;6.314;2022-08-01T08:39:03;8.82;;;2.22;;
57828;SDS011;43657;52.698;6.314;2022-08-01T08:41:30;8.20;;;1.90;;
57828;SDS011;43657;52.698;6.314;2022-08-01T08:43:57;8.05;;;1.60;;
57828;SDS011;43657;52.698;6.314;2022-08-01T08:46:26;7.22;;;1.80;;
57828;SDS011;43657;52.698;6.314;2022-08-01T08:48:53;6.28;;;1.55;;
57828;SDS011;43657;52.698;6.314;2022-08-01T08:51:19;7.13;;;2.15;;
57828;SDS011;43657;52.698;6.314;2022-08-01T08:53:48;5.38;;;1.65;;
57828;SDS011;43657;52.698;6.314;2022-08-01T08:56:17;8.32;;;2.05;;
57828;SDS011;43657;52.698;6.314;2022-08-01T08:58:44;5.00;;;1.77;;
57828;SDS011;43657;52.698;6.314;2022-08-01T09:01:10;5.25;;;1.38;;
57828;SDS011;43657;52.698;6.314;2022-08-01T09:03:37;7.25;;;1.63;;
57828;SDS011;43657;52.698;6.314;2022-08-01T09:06:03;8.82;;;2.10;;
57828;SDS011;43657;52.698;6.314;2022-08-01T09:08:29;7.60;;;2.17;;
57828;SDS011;43657;52.698;6.314;2022-08-01T09:10:55;7.15;;;1.83;;
57828;SDS011;43657;52.698;6.314;2022-08-01T09:13:21;7.35;;;1.77;;
57828;SDS011;43657;52.698;6.314;2022-08-01T09:15:48;5.78;;;1.52;;
57828;SDS011;43657;52.698;6.314;2022-08-01T09:18:34;7.03;;;1.58;;
57828;SDS011;43657;52.698;6.314;2022-08-01T09:21:08;5.68;;;1.50;;
57828;SDS011;43657;52.698;6.314;2022-08-01T09:23:35;8.93;;;2.03;;
57828;SDS011;43657;52.698;6.314;2022-08-01T09:26:07;5.80;;;1.60;;
57828;SDS011;43657;52.698;6.314;2022-08-01T09:28:44;5.35;;;1.30;;
57828;SDS011;43657;52.698;6.314;2022-08-01T09:31:12;6.18;;;1.55;;
57828;SDS011;43657;52.698;6.314;2022-08-01T09:33:49;7.57;;;1.50;;
57828;SDS011;43657;52.698;6.314;2022-08-01T09:36:15;7.57;;;2.33;;
57828;SDS011;43657;52.698;6.314;2022-08-01T09:38:40;4.93;;;1.40;;
57828;SDS011;43657;52.698;6.314;2022-08-01T09:41:06;8.18;;;1.38;;
57828;SDS011;43657;52.698;6.314;2022-08-01T09:43:32;8.15;;;1.50;;
57828;SDS011;43657;52.698;6.314;2022-08-01T09:45:59;7.43;;;1.70;;
57828;SDS011;43657;52.698;6.314;2022-08-01T09:48:29;5.78;;;1.48;;
57828;SDS011;43657;52.698;6.314;2022-08-01T09:50:57;4.47;;;1.35;;
57828;SDS011;43657;52.698;6.314;2022-08-01T09:53:24;5.13;;;2.00;;
57828;SDS011;43657;52.698;6.314;2022-08-01T09:55:49;7.00;;;1.52;;
57828;SDS011;43657;52.698;6.314;2022-08-01T09:58:17;4.72;;;1.50;;
57828;SDS011;43657;52.698;6.314;2022-08-01T10:00:44;3.15;;;1.30;;
57828;SDS011;43657;52.698;6.314;2022-08-01T10:03:26;4.00;;;1.30;;
57828;SDS011;43657;52.698;6.314;2022-08-01T10:05:54;3.97;;;1.30;;
57828;SDS011;43657;52.698;6.314;2022-08-01T10:08:19;4.28;;;1.13;;
57828;SDS011;43657;52.698;6.314;2022-08-01T10:11:09;3.40;;;1.10;;
57828;SDS011;43657;52.698;6.314;2022-08-01T10:13:36;6.10;;;1.60;;
57828;SDS011;43657;52.698;6.314;2022-08-01T10:16:02;5.60;;;1.50;;
57828;SDS011;43657;52.698;6.314;2022-08-01T10:18:30;6.55;;;1.38;;
57828;SDS011;43657;52.698;6.314;2022-08-01T10:20:59;6.28;;;1.50;;
57828;SDS011;43657;52.698;6.314;2022-08-01T10:23:26;3.72;;;1.40;;
57828;SDS011;43657;52.698;6.314;2022-08-01T10:25:53;5.88;;;1.60;;
57828;SDS011;43657;52.698;6.314;2022-08-01T10:28:20;4.95;;;1.30;;
57828;SDS011;43657;52.698;6.314;2022-08-01T10:30:47;3.25;;;1.20;;
57828;SDS011;43657;52.698;6.314;2022-08-01T10:33:14;5.45;;;1.38;;
57828;SDS011;43657;52.698;6.314;2022-08-01T10:35:40;3.50;;;1.00;;
57828;SDS011;43657;52.698;6.314;2022-08-01T10:38:06;3.58;;;1.52;;
57828;SDS011;43657;52.698;6.314;2022-08-01T10:40:32;2.78;;;1.08;;
57828;SDS011;43657;52.698;6.314;2022-08-01T10:43:00;4.28;;;1.10;;
57828;SDS011;43657;52.698;6.314;2022-08-01T10:45:26;3.95;;;1.20;;
57828;SDS011;43657;52.698;6.314;2022-08-01T10:51:06;4.53;;;1.17;;
57828;SDS011;43657;52.698;6.314;2022-08-01T10:53:32;5.03;;;1.10;;
57828;SDS011;43657;52.698;6.314;2022-08-01T10:56:02;3.08;;;1.20;;
57828;SDS011;43657;52.698;6.314;2022-08-01T10:58:29;5.40;;;1.23;;
57828;SDS011;43657;52.698;6.314;2022-08-01T11:01:13;4.05;;;0.90;;
57828;SDS011;43657;52.698;6.314;2022-08-01T11:04:07;3.28;;;1.13;;
57828;SDS011;43657;52.698;6.314;2022-08-01T11:06:36;4.32;;;1.08;;
57828;SDS011;43657;52.698;6.314;2022-08-01T11:14:23;4.28;;;1.17;;
57828;SDS011;43657;52.698;6.314;2022-08-01T11:16:48;4.55;;;1.10;;
57828;SDS011;43657;52.698;6.314;2022-08-01T11:19:14;6.78;;;1.27;;
57828;SDS011;43657;52.698;6.314;2022-08-01T11:32:33;2.60;;;0.80;;
57828;SDS011;43657;52.698;6.314;2022-08-01T11:35:10;4.63;;;1.23;;
57828;SDS011;43657;52.698;6.314;2022-08-01T11:37:36;3.72;;;1.00;;
57828;SDS011;43657;52.698;6.314;2022-08-01T11:40:22;2.83;;;1.00;;
57828;SDS011;43657;52.698;6.314;2022-08-01T11:42:50;6.50;;;1.20;;
57828;SDS011;43657;52.698;6.314;2022-08-01T11:45:53;4.45;;;1.30;;
57828;SDS011;43657;52.698;6.314;2022-08-01T11:48:24;4.10;;;1.08;;
57828;SDS011;43657;52.698;6.314;2022-08-01T11:50:51;3.47;;;1.00;;
57828;SDS011;43657;52.698;6.314;2022-08-01T11:53:18;4.35;;;1.10;;
57828;SDS011;43657;52.698;6.314;2022-08-01T11:55:53;4.43;;;1.10;;
57828;SDS011;43657;52.698;6.314;2022-08-01T11:58:24;5.63;;;1.08;;
57828;SDS011;43657;52.698;6.314;2022-08-01T12:00:51;4.57;;;1.15;;
57828;SDS011;43657;52.698;6.314;2022-08-01T12:03:28;4.82;;;1.00;;
57828;SDS011;43657;52.698;6.314;2022-08-01T12:05:56;5.40;;;1.00;;
57828;SDS011;43657;52.698;6.314;2022-08-01T12:08:29;4.85;;;1.52;;
57828;SDS011;43657;52.698;6.314;2022-08-01T12:11:01;4.75;;;1.00;;
57828;SDS011;43657;52.698;6.314;2022-08-01T12:13:38;2.17;;;0.80;;
57828;SDS011;43657;52.698;6.314;2022-08-01T12:16:09;2.55;;;0.88;;
57828;SDS011;43657;52.698;6.314;2022-08-01T12:18:42;2.92;;;1.08;;
57828;SDS011;43657;52.698;6.314;2022-08-01T12:21:08;2.28;;;0.80;;
57828;SDS011;43657;52.698;6.314;2022-08-01T12:23:34;3.08;;;1.15;;
57828;SDS011;43657;52.698;6.314;2022-08-01T12:25:59;4.07;;;1.30;;
57828;SDS011;43657;52.698;6.314;2022-08-01T12:28:26;2.78;;;0.73;;
57828;SDS011;43657;52.698;6.314;2022-08-01T12:30:52;3.17;;;1.40;;
57828;SDS011;43657;52.698;6.314;2022-08-01T12:33:18;5.28;;;1.15;;
57828;SDS011;43657;52.698;6.314;2022-08-01T12:35:45;3.05;;;0.90;;
57828;SDS011;43657;52.698;6.314;2022-08-01T12:38:16;4.82;;;1.00;;
57828;SDS011;43657;52.698;6.314;2022-08-01T12:40:44;2.42;;;1.05;;
57828;SDS011;43657;52.698;6.314;2022-08-01T12:43:15;6.43;;;1.08;;
57828;SDS011;43657;52.698;6.314;2022-08-01T12:45:45;2.33;;;1.05;;
57828;SDS011;43657;52.698;6.314;2022-08-01T12:48:15;4.05;;;0.90;;
57828;SDS011;43657;52.698;6.314;2022-08-01T12:50:43;3.50;;;0.90;;
57828;SDS011;43657;52.698;6.314;2022-08-01T12:53:13;2.13;;;1.08;;
57828;SDS011;43657;52.698;6.314;2022-08-01T12:55:47;3.30;;;0.68;;
57828;SDS011;43657;52.698;6.314;2022-08-01T12:58:15;2.00;;;0.70;;
57828;SDS011;43657;52.698;6.314;2022-08-01T13:00:42;3.95;;;0.90;;
57828;SDS011;43657;52.698;6.314;2022-08-01T13:03:10;3.45;;;1.08;;
57828;SDS011;43657;52.698;6.314;2022-08-01T13:05:45;3.47;;;0.88;;
57828;SDS011;43657;52.698;6.314;2022-08-01T13:08:38;5.63;;;0.70;;
57828;SDS011;43657;52.698;6.314;2022-08-01T13:11:10;5.70;;;1.27;;
57828;SDS011;43657;52.698;6.314;2022-08-01T13:13:42;3.80;;;1.00;;
57828;SDS011;43657;52.698;6.314;2022-08-01T13:16:12;4.22;;;0.90;;
57828;SDS011;43657;52.698;6.314;2022-08-01T13:18:38;2.70;;;0.80;;
57828;SDS011;43657;52.698;6.314;2022-08-01T13:21:20;2.47;;;0.70;;
57828;SDS011;43657;52.698;6.314;2022-08-01T13:29:12;1.63;;;0.70;;
57828;SDS011;43657;52.698;6.314;2022-08-01T13:31:39;2.20;;;0.80;;
57828;SDS011;43657;52.698;6.314;2022-08-01T13:34:05;2.35;;;0.73;;
57828;SDS011;43657;52.698;6.314;2022-08-01T13:36:32;1.88;;;0.60;;
57828;SDS011;43657;52.698;6.314;2022-08-01T13:38:58;2.47;;;0.65;;
57828;SDS011;43657;52.698;6.314;2022-08-01T13:41:42;4.38;;;0.88;;
57828;SDS011;43657;52.698;6.314;2022-08-01T13:44:08;7.95;;;2.03;;
57828;SDS011;43657;52.698;6.314;2022-08-01T13:46:36;2.65;;;0.82;;
57828;SDS011;43657;52.698;6.314;2022-08-01T13:49:02;2.05;;;0.80;;
57828;SDS011;43657;52.698;6.314;2022-08-01T13:51:28;4.53;;;0.95;;
57828;SDS011;43657;52.698;6.314;2022-08-01T13:53:54;3.13;;;0.75;;
57828;SDS011;43657;52.698;6.314;2022-08-01T13:56:19;4.35;;;0.90;;
57828;SDS011;43657;52.698;6.314;2022-08-01T13:58:45;2.97;;;0.90;;
57828;SDS011;43657;52.698;6.314;2022-08-01T14:01:11;2.05;;;0.70;;
57828;SDS011;43657;52.698;6.314;2022-08-01T14:03:37;2.67;;;0.80;;
57828;SDS011;43657;52.698;6.314;2022-08-01T14:06:03;2.78;;;0.88;;
57828;SDS011;43657;52.698;6.314;2022-08-01T14:08:29;2.90;;;0.75;;
57828;SDS011;43657;52.698;6.314;2022-08-01T14:10:55;3.15;;;0.63;;
57828;SDS011;43657;52.698;6.314;2022-08-01T14:13:23;3.97;;;0.70;;
57828;SDS011;43657;52.698;6.314;2022-08-01T14:15:52;1.95;;;0.63;;
57828;SDS011;43657;52.698;6.314;2022-08-01T14:18:18;1.65;;;0.57;;
57828;SDS011;43657;52.698;6.314;2022-08-01T14:20:44;2.15;;;0.50;;
57828;SDS011;43657;52.698;6.314;2022-08-01T14:23:10;2.20;;;0.93;;
57828;SDS011;43657;52.698;6.314;2022-08-01T14:25:39;2.45;;;0.50;;
57828;SDS011;43657;52.698;6.314;2022-08-01T14:28:06;1.77;;;0.57;;
57828;SDS011;43657;52.698;6.314;2022-08-01T14:30:33;3.33;;;0.70;;
57828;SDS011;43657;52.698;6.314;2022-08-01T14:32:59;2.70;;;0.70;;
57828;SDS011;43657;52.698;6.314;2022-08-01T14:35:24;1.50;;;0.70;;
57828;SDS011;43657;52.698;6.314;2022-08-01T14:37:51;1.42;;;0.65;;
57828;SDS011;43657;52.698;6.314;2022-08-01T14:40:16;2.85;;;0.73;;
57828;SDS011;43657;52.698;6.314;2022-08-01T14:42:42;3.17;;;1.20;;
57828;SDS011;43657;52.698;6.314;2022-08-01T14:45:09;3.08;;;0.60;;
57828;SDS011;43657;52.698;6.314;2022-08-01T14:47:40;2.45;;;0.82;;
57828;SDS011;43657;52.698;6.314;2022-08-01T14:50:08;3.42;;;0.88;;
57828;SDS011;43657;52.698;6.314;2022-08-01T14:52:36;3.28;;;0.82;;
57828;SDS011;43657;52.698;6.314;2022-08-01T14:55:03;3.05;;;0.80;;
57828;SDS011;43657;52.698;6.314;2022-08-01T14:57:29;1.65;;;0.63;;
57828;SDS011;43657;52.698;6.314;2022-08-01T14:59:55;3.22;;;0.70;;
57828;SDS011;43657;52.698;6.314;2022-08-01T15:02:21;3.95;;;0.95;;
57828;SDS011;43657;52.698;6.314;2022-08-01T15:04:47;3.22;;;0.70;;
57828;SDS011;43657;52.698;6.314;2022-08-01T15:07:13;1.45;;;0.60;;
57828;SDS011;43657;52.698;6.314;2022-08-01T15:09:39;1.90;;;0.70;;
57828;SDS011;43657;52.698;6.314;2022-08-01T15:12:05;2.22;;;0.70;;
57828;SDS011;43657;52.698;6.314;2022-08-01T15:14:31;3.45;;;0.80;;
57828;SDS011;43657;52.698;6.314;2022-08-01T15:17:12;1.83;;;0.77;;
57828;SDS011;43657;52.698;6.314;2022-08-01T15:19:43;1.77;;;0.70;;
57828;SDS011;43657;52.698;6.314;2022-08-01T15:22:09;3.92;;;0.80;;
57828;SDS011;43657;52.698;6.314;2022-08-01T15:24:35;3.85;;;1.02;;
57828;SDS011;43657;52.698;6.314;2022-08-01T15:27:00;3.33;;;0.60;;
57828;SDS011;43657;52.698;6.314;2022-08-01T15:29:27;1.55;;;0.65;;
57828;SDS011;43657;52.698;6.314;2022-08-01T15:31:52;1.98;;;0.63;;